sensor_id;sensor_type;location;lat;lon;timestamp;temperature;humidity
7998;DHT22;4044;49.814;7.828;2022-12-07T00:00:55;5.20;99.90
7998;DHT22;4044;49.814;7.828;2022-12-07T00:03:28;5.30;99.90
7998;DHT22;4044;49.814;7.828;2022-12-07T00:05:57;5.30;99.90
7998;DHT22;4044;49.814;7.828;2022-12-07T00:08:23;5.40;99.90
7998;DHT22;4044;49.814;7.828;2022-12-07T00:10:48;5.40;99.90
7998;DHT22;4044;49.814;7.828;2022-12-07T00:13:14;5.50;99.90
7998;DHT22;4044;49.814;7.828;2022-12-07T00:15:39;5.50;99.90
7998;DHT22;4044;49.814;7.828;2022-12-07T00:18:05;5.40;99.90
7998;DHT22;4044;49.814;7.828;2022-12-07T00:20:30;5.30;99.90
7998;DHT22;4044;49.814;7.828;2022-12-07T00:22:56;5.30;99.90
7998;DHT22;4044;49.814;7.828;2022-12-07T00:25:22;5.20;99.90
7998;DHT22;4044;49.814;7.828;2022-12-07T00:27:47;5.20;99.90
7998;DHT22;4044;49.814;7.828;2022-12-07T00:30:13;5.30;99.90
7998;DHT22;4044;49.814;7.828;2022-12-07T00:32:38;5.30;99.90
7998;DHT22;4044;49.814;7.828;2022-12-07T00:35:04;5.40;99.90
7998;DHT22;4044;49.814;7.828;2022-12-07T00:37:30;5.40;99.90
7998;DHT22;4044;49.814;7.828;2022-12-07T00:39:55;5.30;99.90
7998;DHT22;4044;49.814;7.828;2022-12-07T00:42:21;5.40;99.90
7998;DHT22;4044;49.814;7.828;2022-12-07T00:44:46;5.30;99.90
7998;DHT22;4044;49.814;7.828;2022-12-07T00:47:12;5.30;99.90
7998;DHT22;4044;49.814;7.828;2022-12-07T00:49:37;5.30;99.90
7998;DHT22;4044;49.814;7.828;2022-12-07T00:52:03;5.30;99.90
7998;DHT22;4044;49.814;7.828;2022-12-07T00:54:29;5.20;99.90
7998;DHT22;4044;49.814;7.828;2022-12-07T00:56:54;5.10;99.90
7998;DHT22;4044;49.814;7.828;2022-12-07T00:59:20;5.00;99.90
7998;DHT22;4044;49.814;7.828;2022-12-07T01:01:45;5.00;99.90
7998;DHT22;4044;49.814;7.828;2022-12-07T01:04:11;5.00;99.90
7998;DHT22;4044;49.814;7.828;2022-12-07T01:06:36;5.00;99.90
7998;DHT22;4044;49.814;7.828;2022-12-07T01:09:02;5.00;99.90
7998;DHT22;4044;49.814;7.828;2022-12-07T01:11:29;4.90;99.90
7998;DHT22;4044;49.814;7.828;2022-12-07T01:13:57;4.80;99.90
7998;DHT22;4044;49.814;7.828;2022-12-07T01:16:25;4.80;99.90
7998;DHT22;4044;49.814;7.828;2022-12-07T01:18:53;4.80;99.90
7998;DHT22;4044;49.814;7.828;2022-12-07T01:21:21;4.80;99.90
7998;DHT22;4044;49.814;7.828;2022-12-07T01:23:47;4.90;99.90
7998;DHT22;4044;49.814;7.828;2022-12-07T01:26:16;5.00;99.90
7998;DHT22;4044;49.814;7.828;2022-12-07T01:28:43;5.10;99.90
7998;DHT22;4044;49.814;7.828;2022-12-07T01:31:14;5.20;99.90
7998;DHT22;4044;49.814;7.828;2022-12-07T01:33:41;5.20;99.90
7998;DHT22;4044;49.814;7.828;2022-12-07T01:36:17;5.30;99.90
7998;DHT22;4044;49.814;7.828;2022-12-07T01:38:44;5.40;99.90
7998;DHT22;4044;49.814;7.828;2022-12-07T01:41:10;5.40;99.90
7998;DHT22;4044;49.814;7.828;2022-12-07T01:43:36;5.40;99.90
7998;DHT22;4044;49.814;7.828;2022-12-07T01:46:03;5.50;99.90
7998;DHT22;4044;49.814;7.828;2022-12-07T01:48:37;5.50;99.90
7998;DHT22;4044;49.814;7.828;2022-12-07T01:51:07;5.40;99.90
7998;DHT22;4044;49.814;7.828;2022-12-07T01:53:36;5.50;99.90
7998;DHT22;4044;49.814;7.828;2022-12-07T01:56:03;5.50;99.90
7998;DHT22;4044;49.814;7.828;2022-12-07T01:58:29;5.50;99.90
7998;DHT22;4044;49.814;7.828;2022-12-07T02:00:54;5.50;99.90
7998;DHT22;4044;49.814;7.828;2022-12-07T02:03:30;5.40;99.90
7998;DHT22;4044;49.814;7.828;2022-12-07T02:05:58;5.40;99.90
7998;DHT22;4044;49.814;7.828;2022-12-07T02:08:24;5.50;99.90
7998;DHT22;4044;49.814;7.828;2022-12-07T02:10:50;5.60;99.90
7998;DHT22;4044;49.814;7.828;2022-12-07T02:13:22;5.70;99.90
7998;DHT22;4044;49.814;7.828;2022-12-07T02:16:03;5.70;99.90
7998;DHT22;4044;49.814;7.828;2022-12-07T02:24:10;5.70;99.90
7998;DHT22;4044;49.814;7.828;2022-12-07T02:27:02;5.70;99.90
7998;DHT22;4044;49.814;7.828;2022-12-07T02:29:28;5.80;99.90
7998;DHT22;4044;49.814;7.828;2022-12-07T02:34:39;5.90;99.90
7998;DHT22;4044;49.814;7.828;2022-12-07T02:37:17;6.00;99.90
7998;DHT22;4044;49.814;7.828;2022-12-07T02:39:51;5.90;99.90
7998;DHT22;4044;49.814;7.828;2022-12-07T02:42:25;5.90;99.90
7998;DHT22;4044;49.814;7.828;2022-12-07T02:44:52;5.90;99.90
7998;DHT22;4044;49.814;7.828;2022-12-07T02:47:20;5.90;99.90
7998;DHT22;4044;49.814;7.828;2022-12-07T02:49:46;6.00;99.90
7998;DHT22;4044;49.814;7.828;2022-12-07T02:52:12;5.90;99.90
7998;DHT22;4044;49.814;7.828;2022-12-07T02:54:38;6.00;99.90
7998;DHT22;4044;49.814;7.828;2022-12-07T02:57:22;6.10;99.90
7998;DHT22;4044;49.814;7.828;2022-12-07T03:02:50;5.90;99.90
7998;DHT22;4044;49.814;7.828;2022-12-07T03:08:24;5.80;99.90
7998;DHT22;4044;49.814;7.828;2022-12-07T03:11:02;5.80;99.90
7998;DHT22;4044;49.814;7.828;2022-12-07T03:16:17;5.70;99.90
7998;DHT22;4044;49.814;7.828;2022-12-07T03:21:25;5.90;99.90
7998;DHT22;4044;49.814;7.828;2022-12-07T03:23:55;6.00;99.90
7998;DHT22;4044;49.814;7.828;2022-12-07T03:26:26;6.10;99.90
7998;DHT22;4044;49.814;7.828;2022-12-07T03:28:55;6.10;99.90
7998;DHT22;4044;49.814;7.828;2022-12-07T03:31:30;6.20;99.90
7998;DHT22;4044;49.814;7.828;2022-12-07T03:34:11;6.20;99.90
7998;DHT22;4044;49.814;7.828;2022-12-07T03:36:42;6.20;99.90
7998;DHT22;4044;49.814;7.828;2022-12-07T03:39:36;6.30;99.90
7998;DHT22;4044;49.814;7.828;2022-12-07T03:42:05;6.10;99.90
7998;DHT22;4044;49.814;7.828;2022-12-07T03:44:32;6.20;99.90
7998;DHT22;4044;49.814;7.828;2022-12-07T03:47:14;6.20;99.90
7998;DHT22;4044;49.814;7.828;2022-12-07T03:49:54;6.20;99.90
7998;DHT22;4044;49.814;7.828;2022-12-07T03:53:04;6.30;99.90
7998;DHT22;4044;49.814;7.828;2022-12-07T03:55:33;6.30;99.90
7998;DHT22;4044;49.814;7.828;2022-12-07T03:58:03;6.30;99.90
7998;DHT22;4044;49.814;7.828;2022-12-07T04:00:29;6.30;99.90
7998;DHT22;4044;49.814;7.828;2022-12-07T04:02:55;6.20;99.90
7998;DHT22;4044;49.814;7.828;2022-12-07T04:05:21;6.20;99.90
7998;DHT22;4044;49.814;7.828;2022-12-07T04:07:46;6.20;99.90
7998;DHT22;4044;49.814;7.828;2022-12-07T04:10:13;6.10;99.90
7998;DHT22;4044;49.814;7.828;2022-12-07T04:12:38;6.20;99.90
7998;DHT22;4044;49.814;7.828;2022-12-07T04:15:05;6.20;99.90
7998;DHT22;4044;49.814;7.828;2022-12-07T04:17:30;6.20;99.90
7998;DHT22;4044;49.814;7.828;2022-12-07T04:19:56;6.10;99.90
7998;DHT22;4044;49.814;7.828;2022-12-07T04:22:21;6.10;99.90
7998;DHT22;4044;49.814;7.828;2022-12-07T04:24:47;5.90;99.90
7998;DHT22;4044;49.814;7.828;2022-12-07T04:27:13;5.80;99.90
7998;DHT22;4044;49.814;7.828;2022-12-07T04:29:38;5.80;99.90
7998;DHT22;4044;49.814;7.828;2022-12-07T04:32:04;5.80;99.90
7998;DHT22;4044;49.814;7.828;2022-12-07T04:34:29;5.70;99.90
7998;DHT22;4044;49.814;7.828;2022-12-07T04:36:55;5.60;99.90
7998;DHT22;4044;49.814;7.828;2022-12-07T04:39:27;5.60;99.90
7998;DHT22;4044;49.814;7.828;2022-12-07T04:41:53;5.60;99.90
7998;DHT22;4044;49.814;7.828;2022-12-07T04:44:19;5.60;99.90
7998;DHT22;4044;49.814;7.828;2022-12-07T04:46:45;5.70;99.90
7998;DHT22;4044;49.814;7.828;2022-12-07T04:49:12;5.90;99.90
7998;DHT22;4044;49.814;7.828;2022-12-07T04:51:37;5.90;99.90
7998;DHT22;4044;49.814;7.828;2022-12-07T04:54:03;5.90;99.90
7998;DHT22;4044;49.814;7.828;2022-12-07T04:56:29;5.80;99.90
7998;DHT22;4044;49.814;7.828;2022-12-07T04:58:55;5.70;99.90
7998;DHT22;4044;49.814;7.828;2022-12-07T05:01:21;5.80;99.90
7998;DHT22;4044;49.814;7.828;2022-12-07T05:03:47;5.90;99.90
7998;DHT22;4044;49.814;7.828;2022-12-07T05:06:13;6.00;99.90
7998;DHT22;4044;49.814;7.828;2022-12-07T05:08:39;6.00;99.90
7998;DHT22;4044;49.814;7.828;2022-12-07T05:11:06;6.00;99.90
7998;DHT22;4044;49.814;7.828;2022-12-07T05:13:32;6.00;99.90
7998;DHT22;4044;49.814;7.828;2022-12-07T05:15:58;6.10;99.90
7998;DHT22;4044;49.814;7.828;2022-12-07T05:18:24;6.10;99.90
7998;DHT22;4044;49.814;7.828;2022-12-07T05:20:50;6.00;99.90
7998;DHT22;4044;49.814;7.828;2022-12-07T05:23:16;6.00;99.90
7998;DHT22;4044;49.814;7.828;2022-12-07T05:25:42;6.00;99.90
7998;DHT22;4044;49.814;7.828;2022-12-07T05:28:08;6.00;99.90
7998;DHT22;4044;49.814;7.828;2022-12-07T05:30:33;6.00;99.90
7998;DHT22;4044;49.814;7.828;2022-12-07T05:32:59;6.00;99.90
7998;DHT22;4044;49.814;7.828;2022-12-07T05:35:24;6.00;99.90
7998;DHT22;4044;49.814;7.828;2022-12-07T05:37:50;6.10;99.90
7998;DHT22;4044;49.814;7.828;2022-12-07T05:40:16;6.20;99.90
7998;DHT22;4044;49.814;7.828;2022-12-07T05:42:42;6.20;99.90
7998;DHT22;4044;49.814;7.828;2022-12-07T05:45:08;6.10;99.90
7998;DHT22;4044;49.814;7.828;2022-12-07T05:47:34;6.20;99.90
7998;DHT22;4044;49.814;7.828;2022-12-07T05:50:00;6.20;99.90
7998;DHT22;4044;49.814;7.828;2022-12-07T05:52:25;6.10;99.90
7998;DHT22;4044;49.814;7.828;2022-12-07T05:54:51;6.20;99.90
7998;DHT22;4044;49.814;7.828;2022-12-07T05:57:17;6.20;99.90
7998;DHT22;4044;49.814;7.828;2022-12-07T05:59:43;6.20;99.90
7998;DHT22;4044;49.814;7.828;2022-12-07T06:02:12;6.20;99.90
7998;DHT22;4044;49.814;7.828;2022-12-07T06:04:42;6.40;99.90
7998;DHT22;4044;49.814;7.828;2022-12-07T06:07:09;6.40;99.90
7998;DHT22;4044;49.814;7.828;2022-12-07T06:09:35;6.50;99.90
7998;DHT22;4044;49.814;7.828;2022-12-07T06:12:02;6.60;99.90
7998;DHT22;4044;49.814;7.828;2022-12-07T06:14:46;6.60;99.90
7998;DHT22;4044;49.814;7.828;2022-12-07T06:17:12;6.60;99.90
7998;DHT22;4044;49.814;7.828;2022-12-07T06:19:38;6.60;99.90
7998;DHT22;4044;49.814;7.828;2022-12-07T06:22:04;6.60;99.90
7998;DHT22;4044;49.814;7.828;2022-12-07T06:24:31;6.50;99.90
7998;DHT22;4044;49.814;7.828;2022-12-07T06:26:57;6.50;99.90
7998;DHT22;4044;49.814;7.828;2022-12-07T06:29:22;6.50;99.90
7998;DHT22;4044;49.814;7.828;2022-12-07T06:31:48;6.60;99.90
7998;DHT22;4044;49.814;7.828;2022-12-07T06:34:17;6.40;99.90
7998;DHT22;4044;49.814;7.828;2022-12-07T06:36:42;6.30;99.90
7998;DHT22;4044;49.814;7.828;2022-12-07T06:39:08;6.30;99.90
7998;DHT22;4044;49.814;7.828;2022-12-07T06:41:37;6.40;99.90
7998;DHT22;4044;49.814;7.828;2022-12-07T06:44:04;6.40;99.90
7998;DHT22;4044;49.814;7.828;2022-12-07T06:46:30;6.50;99.90
7998;DHT22;4044;49.814;7.828;2022-12-07T06:48:56;6.60;99.90
7998;DHT22;4044;49.814;7.828;2022-12-07T06:51:21;6.60;99.90
7998;DHT22;4044;49.814;7.828;2022-12-07T06:53:47;6.70;99.90
7998;DHT22;4044;49.814;7.828;2022-12-07T06:56:13;6.60;99.90
7998;DHT22;4044;49.814;7.828;2022-12-07T06:58:39;6.60;99.90
7998;DHT22;4044;49.814;7.828;2022-12-07T07:01:09;6.70;99.90
7998;DHT22;4044;49.814;7.828;2022-12-07T07:03:35;6.70;99.90
7998;DHT22;4044;49.814;7.828;2022-12-07T07:06:01;6.60;99.90
7998;DHT22;4044;49.814;7.828;2022-12-07T07:08:26;6.50;99.90
7998;DHT22;4044;49.814;7.828;2022-12-07T07:10:52;6.50;99.90
7998;DHT22;4044;49.814;7.828;2022-12-07T07:13:17;6.40;99.90
7998;DHT22;4044;49.814;7.828;2022-12-07T07:15:43;6.30;99.90
7998;DHT22;4044;49.814;7.828;2022-12-07T07:18:08;6.20;99.90
7998;DHT22;4044;49.814;7.828;2022-12-07T07:20:34;6.20;99.90
7998;DHT22;4044;49.814;7.828;2022-12-07T07:23:00;6.10;99.90
7998;DHT22;4044;49.814;7.828;2022-12-07T07:25:25;6.10;99.90
7998;DHT22;4044;49.814;7.828;2022-12-07T07:27:51;6.00;99.90
7998;DHT22;4044;49.814;7.828;2022-12-07T07:30:16;6.10;99.90
7998;DHT22;4044;49.814;7.828;2022-12-07T07:32:42;6.30;99.90
7998;DHT22;4044;49.814;7.828;2022-12-07T07:35:08;6.40;99.90
7998;DHT22;4044;49.814;7.828;2022-12-07T07:37:33;6.40;99.90
7998;DHT22;4044;49.814;7.828;2022-12-07T07:39:59;6.50;99.90
7998;DHT22;4044;49.814;7.828;2022-12-07T07:42:25;6.50;99.90
7998;DHT22;4044;49.814;7.828;2022-12-07T07:44:50;6.60;99.90
7998;DHT22;4044;49.814;7.828;2022-12-07T07:47:16;6.60;99.90
7998;DHT22;4044;49.814;7.828;2022-12-07T07:49:41;6.60;99.90
7998;DHT22;4044;49.814;7.828;2022-12-07T07:52:07;6.60;99.90
7998;DHT22;4044;49.814;7.828;2022-12-07T07:54:32;6.60;99.90
7998;DHT22;4044;49.814;7.828;2022-12-07T07:56:58;6.70;99.90
7998;DHT22;4044;49.814;7.828;2022-12-07T07:59:23;6.70;99.90
7998;DHT22;4044;49.814;7.828;2022-12-07T08:01:50;6.70;99.90
7998;DHT22;4044;49.814;7.828;2022-12-07T08:04:15;6.60;99.90
7998;DHT22;4044;49.814;7.828;2022-12-07T08:06:41;6.50;99.90
7998;DHT22;4044;49.814;7.828;2022-12-07T08:09:08;6.40;99.90
7998;DHT22;4044;49.814;7.828;2022-12-07T08:11:33;6.30;99.90
7998;DHT22;4044;49.814;7.828;2022-12-07T08:13:59;6.30;99.90
7998;DHT22;4044;49.814;7.828;2022-12-07T08:16:25;6.30;99.90
7998;DHT22;4044;49.814;7.828;2022-12-07T08:18:50;6.40;99.90
7998;DHT22;4044;49.814;7.828;2022-12-07T08:21:16;6.40;99.90
7998;DHT22;4044;49.814;7.828;2022-12-07T08:23:42;6.40;99.90
7998;DHT22;4044;49.814;7.828;2022-12-07T08:26:09;6.30;99.90
7998;DHT22;4044;49.814;7.828;2022-12-07T08:28:36;6.30;99.90
7998;DHT22;4044;49.814;7.828;2022-12-07T08:31:07;6.30;99.90
7998;DHT22;4044;49.814;7.828;2022-12-07T08:33:34;6.20;99.90
7998;DHT22;4044;49.814;7.828;2022-12-07T08:36:07;6.00;99.90
7998;DHT22;4044;49.814;7.828;2022-12-07T08:38:34;6.00;99.90
7998;DHT22;4044;49.814;7.828;2022-12-07T08:41:00;6.00;99.90
7998;DHT22;4044;49.814;7.828;2022-12-07T08:43:26;6.00;99.90
7998;DHT22;4044;49.814;7.828;2022-12-07T08:46:11;5.90;99.90
7998;DHT22;4044;49.814;7.828;2022-12-07T08:51:13;6.00;99.90
7998;DHT22;4044;49.814;7.828;2022-12-07T08:53:39;6.20;99.90
7998;DHT22;4044;49.814;7.828;2022-12-07T08:56:06;6.50;99.90
7998;DHT22;4044;49.814;7.828;2022-12-07T08:58:33;6.60;99.90
7998;DHT22;4044;49.814;7.828;2022-12-07T09:00:59;6.70;99.90
7998;DHT22;4044;49.814;7.828;2022-12-07T09:03:25;6.80;99.90
7998;DHT22;4044;49.814;7.828;2022-12-07T09:05:50;7.00;99.90
7998;DHT22;4044;49.814;7.828;2022-12-07T09:08:17;7.10;99.90
7998;DHT22;4044;49.814;7.828;2022-12-07T09:10:43;7.30;99.90
7998;DHT22;4044;49.814;7.828;2022-12-07T09:13:08;7.30;99.90
7998;DHT22;4044;49.814;7.828;2022-12-07T09:15:34;7.40;99.90
7998;DHT22;4044;49.814;7.828;2022-12-07T09:17:59;7.40;99.90
7998;DHT22;4044;49.814;7.828;2022-12-07T09:20:25;7.40;99.90
7998;DHT22;4044;49.814;7.828;2022-12-07T09:22:50;7.40;99.90
7998;DHT22;4044;49.814;7.828;2022-12-07T09:25:16;7.40;99.90
7998;DHT22;4044;49.814;7.828;2022-12-07T09:27:42;7.40;99.90
7998;DHT22;4044;49.814;7.828;2022-12-07T09:30:07;7.40;99.90
7998;DHT22;4044;49.814;7.828;2022-12-07T09:32:33;7.30;99.90
7998;DHT22;4044;49.814;7.828;2022-12-07T09:34:58;7.40;99.90
7998;DHT22;4044;49.814;7.828;2022-12-07T09:37:24;7.50;99.90
7998;DHT22;4044;49.814;7.828;2022-12-07T09:39:50;7.40;99.90
7998;DHT22;4044;49.814;7.828;2022-12-07T09:42:34;7.20;99.90
7998;DHT22;4044;49.814;7.828;2022-12-07T09:45:01;6.90;99.90
7998;DHT22;4044;49.814;7.828;2022-12-07T09:47:28;6.80;99.90
7998;DHT22;4044;49.814;7.828;2022-12-07T09:50:07;6.80;99.90
7998;DHT22;4044;49.814;7.828;2022-12-07T09:52:36;6.90;99.90
7998;DHT22;4044;49.814;7.828;2022-12-07T09:55:03;7.00;99.90
7998;DHT22;4044;49.814;7.828;2022-12-07T09:57:30;7.00;99.90
7998;DHT22;4044;49.814;7.828;2022-12-07T10:00:00;7.00;99.90
7998;DHT22;4044;49.814;7.828;2022-12-07T10:02:39;6.90;99.90
7998;DHT22;4044;49.814;7.828;2022-12-07T10:05:12;6.90;99.90
7998;DHT22;4044;49.814;7.828;2022-12-07T10:07:38;7.00;99.90
7998;DHT22;4044;49.814;7.828;2022-12-07T10:10:06;7.10;99.90
7998;DHT22;4044;49.814;7.828;2022-12-07T10:12:58;7.10;99.90
7998;DHT22;4044;49.814;7.828;2022-12-07T10:18:40;7.40;99.90
7998;DHT22;4044;49.814;7.828;2022-12-07T10:26:39;7.10;99.90
7998;DHT22;4044;49.814;7.828;2022-12-07T10:29:33;7.20;99.90
7998;DHT22;4044;49.814;7.828;2022-12-07T10:34:32;6.90;99.90
7998;DHT22;4044;49.814;7.828;2022-12-07T10:37:20;6.80;99.90
7998;DHT22;4044;49.814;7.828;2022-12-07T10:39:53;6.50;99.90
7998;DHT22;4044;49.814;7.828;2022-12-07T10:44:46;6.50;99.90
7998;DHT22;4044;49.814;7.828;2022-12-07T11:04:21;7.60;99.90
7998;DHT22;4044;49.814;7.828;2022-12-07T11:07:06;7.70;99.90
7998;DHT22;4044;49.814;7.828;2022-12-07T11:12:41;8.20;99.90
7998;DHT22;4044;49.814;7.828;2022-12-07T11:18:17;7.30;99.90
7998;DHT22;4044;49.814;7.828;2022-12-07T11:21:09;7.10;99.90
7998;DHT22;4044;49.814;7.828;2022-12-07T11:24:02;7.10;99.90
7998;DHT22;4044;49.814;7.828;2022-12-07T11:29:38;7.70;99.90
7998;DHT22;4044;49.814;7.828;2022-12-07T11:35:12;8.40;99.40
7998;DHT22;4044;49.814;7.828;2022-12-07T11:37:43;8.80;99.80
7998;DHT22;4044;49.814;7.828;2022-12-07T11:45:33;9.20;99.00
7998;DHT22;4044;49.814;7.828;2022-12-07T11:48:06;8.90;98.60
7998;DHT22;4044;49.814;7.828;2022-12-07T11:50:43;8.70;98.60
7998;DHT22;4044;49.814;7.828;2022-12-07T11:53:17;8.30;98.50
7998;DHT22;4044;49.814;7.828;2022-12-07T11:56:02;8.30;99.40
7998;DHT22;4044;49.814;7.828;2022-12-07T11:58:49;8.10;98.50
7998;DHT22;4044;49.814;7.828;2022-12-07T12:06:43;7.30;99.60
7998;DHT22;4044;49.814;7.828;2022-12-07T12:09:31;7.60;99.90
7998;DHT22;4044;49.814;7.828;2022-12-07T12:14:55;8.40;98.80
7998;DHT22;4044;49.814;7.828;2022-12-07T12:23:07;10.00;96.50
7998;DHT22;4044;49.814;7.828;2022-12-07T12:26:21;10.00;96.10
7998;DHT22;4044;49.814;7.828;2022-12-07T12:28:38;9.90;95.30
7998;DHT22;4044;49.814;7.828;2022-12-07T12:31:13;9.40;95.60
7998;DHT22;4044;49.814;7.828;2022-12-07T12:33:44;9.40;95.60
7998;DHT22;4044;49.814;7.828;2022-12-07T12:44:02;8.70;95.10
7998;DHT22;4044;49.814;7.828;2022-12-07T12:51:59;8.90;95.60
7998;DHT22;4044;49.814;7.828;2022-12-07T12:54:26;9.00;96.10
7998;DHT22;4044;49.814;7.828;2022-12-07T13:15:38;9.70;94.40
7998;DHT22;4044;49.814;7.828;2022-12-07T13:23:56;10.50;92.80
7998;DHT22;4044;49.814;7.828;2022-12-07T13:29:18;10.60;92.50
7998;DHT22;4044;49.814;7.828;2022-12-07T13:31:52;10.90;93.50
7998;DHT22;4044;49.814;7.828;2022-12-07T13:36:56;10.30;92.30
7998;DHT22;4044;49.814;7.828;2022-12-07T13:39:24;9.90;93.30
7998;DHT22;4044;49.814;7.828;2022-12-07T13:41:52;9.70;93.80
7998;DHT22;4044;49.814;7.828;2022-12-07T13:44:19;9.50;94.60
7998;DHT22;4044;49.814;7.828;2022-12-07T13:47:15;9.20;94.10
7998;DHT22;4044;49.814;7.828;2022-12-07T13:49:51;8.70;95.90
7998;DHT22;4044;49.814;7.828;2022-12-07T13:52:25;7.90;96.90
7998;DHT22;4044;49.814;7.828;2022-12-07T13:57:33;7.00;98.50
7998;DHT22;4044;49.814;7.828;2022-12-07T14:00:05;6.90;98.30
7998;DHT22;4044;49.814;7.828;2022-12-07T14:02:33;7.00;98.90
7998;DHT22;4044;49.814;7.828;2022-12-07T14:05:23;7.20;98.50
7998;DHT22;4044;49.814;7.828;2022-12-07T14:16:03;8.20;97.60
7998;DHT22;4044;49.814;7.828;2022-12-07T14:18:40;8.30;97.70
7998;DHT22;4044;49.814;7.828;2022-12-07T14:23:34;8.40;98.30
7998;DHT22;4044;49.814;7.828;2022-12-07T14:26:13;8.40;98.60
7998;DHT22;4044;49.814;7.828;2022-12-07T14:28:41;8.40;98.70
7998;DHT22;4044;49.814;7.828;2022-12-07T14:31:15;8.40;98.10
7998;DHT22;4044;49.814;7.828;2022-12-07T14:33:41;8.50;98.10
7998;DHT22;4044;49.814;7.828;2022-12-07T14:36:14;8.40;97.50
7998;DHT22;4044;49.814;7.828;2022-12-07T14:38:39;8.10;97.30
7998;DHT22;4044;49.814;7.828;2022-12-07T14:41:17;7.80;97.80
7998;DHT22;4044;49.814;7.828;2022-12-07T14:44:11;7.70;97.90
7998;DHT22;4044;49.814;7.828;2022-12-07T14:46:37;7.40;97.50
7998;DHT22;4044;49.814;7.828;2022-12-07T14:49:02;7.10;97.70
7998;DHT22;4044;49.814;7.828;2022-12-07T14:51:28;7.00;98.10
7998;DHT22;4044;49.814;7.828;2022-12-07T14:53:53;7.10;98.50
7998;DHT22;4044;49.814;7.828;2022-12-07T14:56:19;7.00;98.50
7998;DHT22;4044;49.814;7.828;2022-12-07T14:58:45;6.90;98.80
7998;DHT22;4044;49.814;7.828;2022-12-07T15:01:13;7.00;98.40
7998;DHT22;4044;49.814;7.828;2022-12-07T15:03:39;7.10;98.60
7998;DHT22;4044;49.814;7.828;2022-12-07T15:06:05;7.30;98.40
7998;DHT22;4044;49.814;7.828;2022-12-07T15:08:31;7.40;98.20
7998;DHT22;4044;49.814;7.828;2022-12-07T15:10:56;7.40;97.90
7998;DHT22;4044;49.814;7.828;2022-12-07T15:13:22;7.50;98.10
7998;DHT22;4044;49.814;7.828;2022-12-07T15:16:10;7.50;97.90
7998;DHT22;4044;49.814;7.828;2022-12-07T15:18:38;7.50;97.80
7998;DHT22;4044;49.814;7.828;2022-12-07T15:21:04;7.40;98.20
7998;DHT22;4044;49.814;7.828;2022-12-07T15:23:29;7.20;98.00
7998;DHT22;4044;49.814;7.828;2022-12-07T15:25:56;7.20;98.70
7998;DHT22;4044;49.814;7.828;2022-12-07T15:28:22;7.20;98.70
7998;DHT22;4044;49.814;7.828;2022-12-07T15:30:47;7.20;98.60
7998;DHT22;4044;49.814;7.828;2022-12-07T15:33:13;7.30;98.90
7998;DHT22;4044;49.814;7.828;2022-12-07T15:35:43;7.30;98.60
7998;DHT22;4044;49.814;7.828;2022-12-07T15:38:09;7.20;98.30
7998;DHT22;4044;49.814;7.828;2022-12-07T15:40:35;6.90;98.70
7998;DHT22;4044;49.814;7.828;2022-12-07T15:43:01;6.80;98.80
7998;DHT22;4044;49.814;7.828;2022-12-07T15:45:27;6.80;98.70
7998;DHT22;4044;49.814;7.828;2022-12-07T15:47:52;6.70;98.90
7998;DHT22;4044;49.814;7.828;2022-12-07T15:50:20;6.50;99.00
7998;DHT22;4044;49.814;7.828;2022-12-07T15:52:46;6.40;99.30
7998;DHT22;4044;49.814;7.828;2022-12-07T15:55:12;6.30;99.10
7998;DHT22;4044;49.814;7.828;2022-12-07T15:57:38;6.20;99.30
7998;DHT22;4044;49.814;7.828;2022-12-07T16:00:06;6.10;99.80
7998;DHT22;4044;49.814;7.828;2022-12-07T16:02:32;6.00;99.90
7998;DHT22;4044;49.814;7.828;2022-12-07T16:04:58;5.80;99.90
7998;DHT22;4044;49.814;7.828;2022-12-07T16:07:23;5.70;99.90
7998;DHT22;4044;49.814;7.828;2022-12-07T16:09:49;5.70;99.90
7998;DHT22;4044;49.814;7.828;2022-12-07T16:12:15;5.70;99.90
7998;DHT22;4044;49.814;7.828;2022-12-07T16:14:41;5.70;99.90
7998;DHT22;4044;49.814;7.828;2022-12-07T16:17:08;5.70;99.90
7998;DHT22;4044;49.814;7.828;2022-12-07T16:19:35;5.70;99.90
7998;DHT22;4044;49.814;7.828;2022-12-07T16:22:01;5.80;99.90
7998;DHT22;4044;49.814;7.828;2022-12-07T16:24:27;5.90;99.90
7998;DHT22;4044;49.814;7.828;2022-12-07T16:26:52;5.90;99.90
7998;DHT22;4044;49.814;7.828;2022-12-07T16:29:19;5.90;99.90
7998;DHT22;4044;49.814;7.828;2022-12-07T16:31:45;6.00;99.90
7998;DHT22;4044;49.814;7.828;2022-12-07T16:34:11;6.10;99.90
7998;DHT22;4044;49.814;7.828;2022-12-07T16:36:36;6.10;99.90
7998;DHT22;4044;49.814;7.828;2022-12-07T16:39:03;6.20;99.90
7998;DHT22;4044;49.814;7.828;2022-12-07T16:41:28;6.20;99.90
7998;DHT22;4044;49.814;7.828;2022-12-07T16:43:54;6.20;99.90
7998;DHT22;4044;49.814;7.828;2022-12-07T16:46:20;6.20;99.90
7998;DHT22;4044;49.814;7.828;2022-12-07T16:48:45;6.20;99.90
7998;DHT22;4044;49.814;7.828;2022-12-07T16:51:13;6.30;99.60
7998;DHT22;4044;49.814;7.828;2022-12-07T16:53:40;6.30;99.90
7998;DHT22;4044;49.814;7.828;2022-12-07T16:56:11;6.40;99.90
7998;DHT22;4044;49.814;7.828;2022-12-07T16:58:37;6.40;99.90
7998;DHT22;4044;49.814;7.828;2022-12-07T17:01:14;6.40;99.90
7998;DHT22;4044;49.814;7.828;2022-12-07T17:03:40;6.50;99.90
7998;DHT22;4044;49.814;7.828;2022-12-07T17:06:19;6.50;99.90
7998;DHT22;4044;49.814;7.828;2022-12-07T17:08:48;6.50;99.90
7998;DHT22;4044;49.814;7.828;2022-12-07T17:11:26;6.50;99.90
7998;DHT22;4044;49.814;7.828;2022-12-07T17:13:52;6.50;99.90
7998;DHT22;4044;49.814;7.828;2022-12-07T17:16:36;6.60;99.90
7998;DHT22;4044;49.814;7.828;2022-12-07T17:19:10;6.60;99.90
7998;DHT22;4044;49.814;7.828;2022-12-07T17:21:36;6.60;99.90
7998;DHT22;4044;49.814;7.828;2022-12-07T17:24:03;6.60;99.90
7998;DHT22;4044;49.814;7.828;2022-12-07T17:26:30;6.50;99.90
7998;DHT22;4044;49.814;7.828;2022-12-07T17:28:56;6.50;99.90
7998;DHT22;4044;49.814;7.828;2022-12-07T17:31:23;6.60;99.90
7998;DHT22;4044;49.814;7.828;2022-12-07T17:33:49;6.60;99.50
7998;DHT22;4044;49.814;7.828;2022-12-07T17:38:43;6.50;99.90
7998;DHT22;4044;49.814;7.828;2022-12-07T17:41:14;6.40;99.90
7998;DHT22;4044;49.814;7.828;2022-12-07T17:44:00;6.40;99.90
7998;DHT22;4044;49.814;7.828;2022-12-07T17:46:26;6.40;99.90
7998;DHT22;4044;49.814;7.828;2022-12-07T17:48:54;6.40;99.90
7998;DHT22;4044;49.814;7.828;2022-12-07T17:51:19;6.40;99.90
7998;DHT22;4044;49.814;7.828;2022-12-07T17:54:04;6.40;99.90
7998;DHT22;4044;49.814;7.828;2022-12-07T17:56:29;6.40;99.90
7998;DHT22;4044;49.814;7.828;2022-12-07T17:58:55;6.50;99.90
7998;DHT22;4044;49.814;7.828;2022-12-07T18:01:20;6.50;99.90
7998;DHT22;4044;49.814;7.828;2022-12-07T18:03:46;6.40;99.90
7998;DHT22;4044;49.814;7.828;2022-12-07T18:06:11;6.40;99.90
7998;DHT22;4044;49.814;7.828;2022-12-07T18:08:37;6.40;99.90
7998;DHT22;4044;49.814;7.828;2022-12-07T18:11:04;6.20;99.90
7998;DHT22;4044;49.814;7.828;2022-12-07T18:13:30;6.30;99.90
7998;DHT22;4044;49.814;7.828;2022-12-07T18:16:23;6.20;99.90
7998;DHT22;4044;49.814;7.828;2022-12-07T18:18:50;6.10;99.90
7998;DHT22;4044;49.814;7.828;2022-12-07T18:21:23;6.20;99.90
7998;DHT22;4044;49.814;7.828;2022-12-07T18:23:52;6.20;99.90
7998;DHT22;4044;49.814;7.828;2022-12-07T18:26:19;6.20;99.90
7998;DHT22;4044;49.814;7.828;2022-12-07T18:28:45;6.20;99.90
7998;DHT22;4044;49.814;7.828;2022-12-07T18:31:10;6.10;99.90
7998;DHT22;4044;49.814;7.828;2022-12-07T18:33:37;6.10;99.90
7998;DHT22;4044;49.814;7.828;2022-12-07T18:36:04;6.20;99.90
7998;DHT22;4044;49.814;7.828;2022-12-07T18:38:30;6.10;99.90
7998;DHT22;4044;49.814;7.828;2022-12-07T18:40:56;6.10;99.90
7998;DHT22;4044;49.814;7.828;2022-12-07T18:43:22;6.10;99.90
7998;DHT22;4044;49.814;7.828;2022-12-07T18:45:50;6.00;99.90
7998;DHT22;4044;49.814;7.828;2022-12-07T18:48:17;6.00;99.90
7998;DHT22;4044;49.814;7.828;2022-12-07T18:50:46;6.10;99.90